Providence Village's Hourly Summary for Sunday, March 19, 2017
Hour Temp
(f)
RH
(%)
Solar Rad.
(MJ/m2)
Rainfall
(in)
Wind
(mph)
3/19/2017 12:00 AM 69 70 0 0 1.79
3/19/2017 1:00 AM 68 74 0 0 1.58
3/19/2017 2:00 AM 65 80 0 0 1.61
3/19/2017 3:00 AM 64 84 0 0 0.34
3/19/2017 4:00 AM 63 89 0 0 0.66
3/19/2017 5:00 AM 64 84 0 0 2.2
3/19/2017 6:00 AM 65 84 0 0 3.15
3/19/2017 7:00 AM 64 85 0 0 3.52
3/19/2017 8:00 AM 63 89 0.02 0 3.13
3/19/2017 9:00 AM 65 85 0.44 0 1.73
3/19/2017 10:00 AM 68 78 1.1 0 4.79
3/19/2017 11:00 AM 69 70 1.55 0 6.5
3/19/2017 12:00 PM 72 69 2.48 0 6.92
3/19/2017 1:00 PM 74 62 2.83 0 8.29
3/19/2017 2:00 PM 77 58 3 0 8.9
3/19/2017 3:00 PM 78 52 2.94 0 9.44
3/19/2017 4:00 PM 80 47 2.65 0 9.06
3/19/2017 5:00 PM 82 46 2.14 0 8.45
3/19/2017 6:00 PM 82 47 1.46 0 8.03
3/19/2017 7:00 PM 80 49 0.71 0 8.17
3/19/2017 8:00 PM 78 52 0.1 0 8.24
3/19/2017 9:00 PM 75 59 0 0 7.17
3/19/2017 10:00 PM 74 62 0 0 7.32
3/19/2017 11:00 PM 73 63 0 0 8.02
Data Summary 71 68 21.42 0.00 5.38